Time;durP1;ratioP1;P1;durP2;ratioP2;P2;SDS_P1;SDS_P2;PMS_P1;PMS_P2;Temp;Humidity;BMP_temperature;BMP_pressure;BME280_temperature;BME280_humidity;BME280_pressure;Samples;Min_cycle;Max_cycle;Signal;HPM_P1;HPM_P2
2020/12/28 00:01:53;;;;;;;5.95;2.67;;;4.40;99.90;;;;;;5037329;28;20029;-58
2020/12/28 00:04:22;;;;;;;3.55;2.20;;;4.40;99.90;;;;;;5036518;28;20044;-57
2020/12/28 00:06:48;;;;;;;3.35;2.00;;;4.40;99.90;;;;;;5035342;28;20025;-57
2020/12/28 00:09:15;;;;;;;4.00;2.10;;;4.50;99.90;;;;;;5054318;28;20041;-56
2020/12/28 00:11:40;;;;;;;2.55;1.60;;;4.50;99.90;;;;;;5053785;28;20509;-57
2020/12/28 00:14:06;;;;;;;4.55;2.00;;;4.50;99.90;;;;;;5038076;28;20025;-57
2020/12/28 00:16:35;;;;;;;3.53;2.33;;;4.50;99.90;;;;;;5035891;28;20466;-57
2020/12/28 00:19:00;;;;;;;2.55;2.00;;;4.50;99.90;;;;;;5053729;28;20043;-57
2020/12/28 00:21:26;;;;;;;2.05;1.70;;;4.50;99.90;;;;;;5034846;28;20436;-66
2020/12/28 00:23:52;;;;;;;2.92;1.80;;;4.60;99.90;;;;;;5036368;28;20021;-56
2020/12/28 00:26:18;;;;;;;2.53;1.67;;;4.60;99.90;;;;;;5035928;28;20115;-56
2020/12/28 00:28:44;;;;;;;1.88;1.10;;;4.70;99.90;;;;;;5053543;28;20036;-57
2020/12/28 00:31:11;;;;;;;2.05;1.30;;;4.90;99.90;;;;;;5035487;28;20037;-57
2020/12/28 00:33:39;;;;;;;1.70;1.05;;;4.90;99.90;;;;;;5035489;28;20029;-58
2020/12/28 00:36:05;;;;;;;1.23;0.63;;;5.00;99.90;;;;;;5037048;28;20520;-57
2020/12/28 00:38:31;;;;;;;1.17;0.63;;;5.20;99.90;;;;;;5054163;28;20033;-57
2020/12/28 00:40:57;;;;;;;0.80;0.47;;;5.30;99.90;;;;;;5055014;28;20037;-56
2020/12/28 00:43:23;;;;;;;0.50;0.30;;;5.30;99.90;;;;;;5055236;28;20027;-56
2020/12/28 00:45:48;;;;;;;0.98;0.65;;;5.40;99.90;;;;;;5053527;28;20033;-56
2020/12/28 00:48:14;;;;;;;1.35;0.88;;;5.70;99.90;;;;;;5055126;28;20047;-57
2020/12/28 00:50:40;;;;;;;2.65;0.60;;;5.50;99.90;;;;;;5055485;28;20036;-56
2020/12/28 00:53:06;;;;;;;2.22;0.60;;;5.50;99.90;;;;;;5055957;28;20025;-60
2020/12/28 00:55:31;;;;;;;0.68;0.35;;;5.50;99.90;;;;;;5054752;28;20025;-56
2020/12/28 00:57:57;;;;;;;1.48;0.50;;;5.50;99.90;;;;;;5053355;28;20028;-62
2020/12/28 01:00:23;;;;;;;1.00;0.30;;;5.50;99.90;;;;;;5037593;28;20512;-57
2020/12/28 01:02:48;;;;;;;0.77;0.52;;;5.50;99.90;;;;;;5055523;28;20587;-58
2020/12/28 01:05:14;;;;;;;1.35;0.50;;;5.50;99.90;;;;;;5054946;28;20051;-56
2020/12/28 01:07:39;;;;;;;0.90;0.32;;;5.60;99.90;;;;;;5035680;28;20021;-57
2020/12/28 01:10:05;;;;;;;0.60;0.43;;;5.60;99.90;;;;;;5055434;28;20038;-57
2020/12/28 01:12:31;;;;;;;1.02;0.50;;;5.60;99.90;;;;;;5034665;28;20490;-56
2020/12/28 01:14:57;;;;;;;0.82;0.50;;;5.70;99.90;;;;;;5053069;28;20028;-57
2020/12/28 01:17:23;;;;;;;0.40;0.40;;;5.60;99.90;;;;;;5052544;28;20032;-60
2020/12/28 01:19:48;;;;;;;1.40;0.65;;;5.70;99.90;;;;;;5052629;28;20033;-57
2020/12/28 01:22:14;;;;;;;1.52;0.47;;;5.60;99.90;;;;;;5052924;28;20029;-56
2020/12/28 01:24:40;;;;;;;1.27;0.52;;;5.70;99.90;;;;;;5052134;28;20468;-57
2020/12/28 01:27:05;;;;;;;1.35;0.50;;;5.60;99.90;;;;;;5035135;28;20186;-57
2020/12/28 01:29:31;;;;;;;4.22;0.50;;;5.60;99.90;;;;;;5052004;28;20033;-59
2020/12/28 01:31:57;;;;;;;1.25;0.60;;;5.70;99.90;;;;;;5053233;28;20059;-57
2020/12/28 01:34:22;;;;;;;3.03;0.70;;;5.60;99.90;;;;;;5053748;28;20025;-58
2020/12/28 01:36:49;;;;;;;0.75;0.75;;;5.70;99.90;;;;;;5053270;28;20206;-56
2020/12/28 01:39:14;;;;;;;1.00;0.55;;;5.60;99.90;;;;;;5054058;28;20537;-61
2020/12/28 01:41:53;;;;;;;1.42;0.60;;;5.70;99.90;;;;;;5035412;28;20056;-57
2020/12/28 01:44:18;;;;;;;0.85;0.50;;;5.60;99.90;;;;;;5053788;28;20117;-57
2020/12/28 01:46:44;;;;;;;0.93;0.60;;;5.60;99.90;;;;;;5034505;28;20064;-57
2020/12/28 01:49:10;;;;;;;2.05;0.60;;;5.50;99.90;;;;;;5053420;28;20545;-57
2020/12/28 01:51:36;;;;;;;1.63;0.60;;;5.60;99.90;;;;;;5053229;28;20525;-57
2020/12/28 01:54:03;;;;;;;0.88;0.50;;;5.50;99.90;;;;;;5053898;28;20115;-56
2020/12/28 01:56:31;;;;;;;3.17;0.75;;;5.60;99.90;;;;;;5035287;28;20052;-64
2020/12/28 01:58:57;;;;;;;1.77;0.82;;;5.50;99.90;;;;;;5053273;28;20116;-57
2020/12/28 02:01:25;;;;;;;1.05;0.50;;;5.60;99.90;;;;;;5055251;28;20072;-56
2020/12/28 02:03:51;;;;;;;0.68;0.50;;;5.60;99.90;;;;;;5054049;28;20025;-58
2020/12/28 02:06:17;;;;;;;2.85;0.50;;;5.60;99.90;;;;;;5054508;28;20039;-57
2020/12/28 02:08:44;;;;;;;0.73;0.40;;;5.60;99.90;;;;;;5035221;28;20083;-57
2020/12/28 02:11:09;;;;;;;1.67;0.40;;;5.50;99.90;;;;;;5038150;28;20055;-57
2020/12/28 02:13:35;;;;;;;0.73;0.43;;;5.70;99.90;;;;;;5056046;28;20029;-56
2020/12/28 02:16:01;;;;;;;1.67;0.20;;;5.50;99.90;;;;;;5056256;28;20024;-62
2020/12/28 02:18:26;;;;;;;1.77;0.50;;;5.50;99.90;;;;;;5038410;28;20067;-56
2020/12/28 02:20:52;;;;;;;1.38;0.60;;;5.50;99.90;;;;;;5055852;28;20048;-57
2020/12/28 02:23:17;;;;;;;1.30;0.55;;;5.50;99.90;;;;;;5038388;28;20082;-56
2020/12/28 02:25:43;;;;;;;0.77;0.50;;;5.50;99.90;;;;;;5055813;28;20082;-56
2020/12/28 02:28:09;;;;;;;1.05;0.30;;;5.60;99.90;;;;;;5038257;28;20052;-56
2020/12/28 02:30:35;;;;;;;0.68;0.52;;;5.50;99.90;;;;;;5055183;28;20489;-60
2020/12/28 02:33:01;;;;;;;1.30;0.43;;;5.50;99.90;;;;;;5038594;28;20069;-55
2020/12/28 02:35:27;;;;;;;1.38;0.60;;;5.50;99.90;;;;;;5038500;28;20029;-56
2020/12/28 02:37:53;;;;;;;1.70;0.80;;;5.50;99.90;;;;;;5055311;28;20082;-56
2020/12/28 02:40:18;;;;;;;1.95;1.00;;;5.50;99.90;;;;;;5038379;28;20046;-57
2020/12/28 02:42:44;;;;;;;1.67;0.75;;;5.50;99.90;;;;;;5055486;28;20028;-61
2020/12/28 02:45:09;;;;;;;1.08;0.60;;;5.50;99.90;;;;;;5040654;28;20024;-56
2020/12/28 02:47:35;;;;;;;0.95;0.68;;;5.50;99.90;;;;;;5057149;28;20429;-70
2020/12/28 02:50:01;;;;;;;1.75;0.80;;;5.60;99.90;;;;;;5038377;28;20091;-57
2020/12/28 02:52:26;;;;;;;0.82;0.75;;;5.50;99.90;;;;;;5055926;28;20100;-56
2020/12/28 02:54:52;;;;;;;1.00;0.90;;;5.50;99.90;;;;;;5055502;28;20025;-56
2020/12/28 02:57:17;;;;;;;0.75;0.50;;;5.50;99.90;;;;;;5056128;28;20027;-58
2020/12/28 02:59:43;;;;;;;1.00;0.60;;;5.40;99.90;;;;;;5036833;28;20029;-56
2020/12/28 03:02:08;;;;;;;0.73;0.60;;;5.50;99.90;;;;;;5038209;28;20072;-56
2020/12/28 03:04:34;;;;;;;1.70;0.47;;;5.50;99.90;;;;;;5037102;28;20106;-65
2020/12/28 03:07:00;;;;;;;0.77;0.50;;;5.50;99.90;;;;;;5055423;28;20021;-57
2020/12/28 03:09:25;;;;;;;1.20;0.30;;;5.50;99.90;;;;;;5057032;28;20056;-58
2020/12/28 03:11:51;;;;;;;1.65;0.30;;;5.50;99.90;;;;;;5058494;28;20068;-66
2020/12/28 03:14:17;;;;;;;1.73;0.30;;;5.50;99.90;;;;;;5059297;28;20029;-57
2020/12/28 03:16:42;;;;;;;0.40;0.20;;;5.60;99.90;;;;;;5058398;28;20036;-58
2020/12/28 03:19:08;;;;;;;1.10;0.20;;;5.50;99.90;;;;;;5040685;28;20032;-57
2020/12/28 03:21:33;;;;;;;0.52;0.40;;;5.50;99.90;;;;;;5040148;28;20027;-65
2020/12/28 03:23:59;;;;;;;0.35;0.10;;;5.50;99.90;;;;;;5039986;28;20035;-56
2020/12/28 03:26:25;;;;;;;0.50;0.20;;;5.40;99.90;;;;;;5056569;28;20040;-58
2020/12/28 03:28:50;;;;;;;0.38;0.10;;;5.50;99.90;;;;;;5054634;28;20473;-57
2020/12/28 03:31:16;;;;;;;2.17;0.28;;;5.50;99.90;;;;;;5037808;28;20029;-57
2020/12/28 03:33:42;;;;;;;1.88;0.45;;;5.50;99.90;;;;;;5037775;28;20474;-58
2020/12/28 03:36:07;;;;;;;0.57;0.20;;;5.40;99.90;;;;;;5057237;28;20420;-61
2020/12/28 03:38:33;;;;;;;1.95;0.10;;;5.40;99.90;;;;;;5058484;28;20025;-58
2020/12/28 03:40:59;;;;;;;2.08;0.10;;;5.50;99.90;;;;;;5056959;28;20033;-58
2020/12/28 03:43:24;;;;;;;0.20;0.10;;;5.50;99.90;;;;;;5040171;28;20467;-58
2020/12/28 03:45:50;;;;;;;0.50;0.22;;;5.60;99.90;;;;;;5038309;28;20104;-62
2020/12/28 03:48:15;;;;;;;0.28;0.10;;;5.60;99.90;;;;;;5039269;28;20029;-58
2020/12/28 03:50:41;;;;;;;0.30;0.15;;;5.60;99.90;;;;;;5057154;28;20485;-58
2020/12/28 03:53:07;;;;;;;0.47;0.10;;;5.60;99.90;;;;;;5037861;28;20031;-58
2020/12/28 03:55:32;;;;;;;0.10;0.10;;;5.60;99.90;;;;;;5055416;28;20112;-57
2020/12/28 03:57:58;;;;;;;0.65;0.10;;;5.60;99.90;;;;;;5054243;28;20510;-57
2020/12/28 04:00:24;;;;;;;0.30;0.10;;;5.60;99.90;;;;;;5037213;28;20071;-58
2020/12/28 04:02:49;;;;;;;0.40;0.30;;;5.60;99.90;;;;;;5053888;28;20068;-57
2020/12/28 04:05:16;;;;;;;2.22;0.10;;;5.60;99.90;;;;;;5037252;28;20139;-58
2020/12/28 04:07:41;;;;;;;2.30;0.20;;;5.60;99.90;;;;;;5054148;28;20437;-57
2020/12/28 04:10:07;;;;;;;0.25;0.10;;;5.70;99.90;;;;;;5055195;28;20029;-60
2020/12/28 04:12:32;;;;;;;0.50;0.50;;;5.60;99.90;;;;;;5034098;28;20132;-57
2020/12/28 04:14:58;;;;;;;0.45;0.20;;;5.60;99.90;;;;;;5033854;28;20028;-57
2020/12/28 04:17:24;;;;;;;0.25;0.20;;;5.70;99.90;;;;;;5033693;28;20364;-57
2020/12/28 04:19:49;;;;;;;2.70;0.50;;;5.70;99.90;;;;;;5033156;28;20398;-57
2020/12/28 04:22:15;;;;;;;2.38;0.40;;;5.70;99.90;;;;;;5034107;28;20387;-59
2020/12/28 04:24:41;;;;;;;0.80;0.45;;;5.70;99.90;;;;;;5033377;28;20029;-66
2020/12/28 04:27:06;;;;;;;1.10;0.50;;;5.70;99.90;;;;;;5032720;28;20021;-57
2020/12/28 04:29:32;;;;;;;0.68;0.68;;;5.70;99.90;;;;;;5032736;28;20061;-57
2020/12/28 04:31:58;;;;;;;0.80;0.55;;;5.70;99.90;;;;;;5031714;28;20305;-56
2020/12/28 04:34:24;;;;;;;1.83;0.70;;;5.70;99.90;;;;;;5032562;28;20034;-59
2020/12/28 04:36:49;;;;;;;1.52;0.60;;;5.70;99.90;;;;;;5032111;28;20033;-56
2020/12/28 04:39:15;;;;;;;0.98;0.60;;;5.80;99.90;;;;;;5033484;28;20037;-56
2020/12/28 04:41:41;;;;;;;0.93;0.77;;;5.70;99.90;;;;;;5033864;28;20026;-67
2020/12/28 04:44:06;;;;;;;0.80;0.60;;;5.70;99.90;;;;;;5033531;28;20355;-58
2020/12/28 04:46:35;;;;;;;0.93;0.65;;;5.80;99.90;;;;;;5034021;28;20026;-57
2020/12/28 04:49:01;;;;;;;0.60;0.60;;;5.80;99.90;;;;;;5032988;28;20108;-56
2020/12/28 04:51:27;;;;;;;3.42;0.47;;;5.80;99.90;;;;;;5033569;28;20087;-57
2020/12/28 04:53:53;;;;;;;1.05;0.47;;;5.80;99.90;;;;;;5032626;28;20029;-61
2020/12/28 04:56:20;;;;;;;1.55;0.60;;;5.90;99.90;;;;;;5033021;28;20364;-56
2020/12/28 04:58:46;;;;;;;1.20;0.50;;;5.90;99.90;;;;;;5032586;28;20091;-57
2020/12/28 05:01:12;;;;;;;0.95;0.40;;;5.90;99.90;;;;;;5033525;28;20070;-57
2020/12/28 05:03:38;;;;;;;0.93;0.60;;;6.00;99.90;;;;;;5032385;28;20029;-57
2020/12/28 05:06:04;;;;;;;1.70;0.35;;;6.00;99.90;;;;;;5032532;28;20445;-56
2020/12/28 05:08:29;;;;;;;0.60;0.43;;;5.90;99.90;;;;;;5031939;28;20465;-57
2020/12/28 05:11:06;;;;;;;1.00;0.60;;;5.90;99.90;;;;;;5030913;28;20054;-58
2020/12/28 05:13:31;;;;;;;0.65;0.45;;;5.80;99.90;;;;;;5033345;28;20445;-56
2020/12/28 05:15:57;;;;;;;1.10;0.50;;;5.80;99.90;;;;;;5032393;28;20021;-58
2020/12/28 05:18:23;;;;;;;0.60;0.30;;;5.80;99.90;;;;;;5032621;28;20034;-59
2020/12/28 05:20:50;;;;;;;1.75;0.35;;;5.70;99.90;;;;;;5032368;28;20032;-57
2020/12/28 05:23:16;;;;;;;1.17;0.30;;;5.80;99.90;;;;;;5031180;28;20104;-59
2020/12/28 05:25:44;;;;;;;1.30;0.35;;;5.80;99.90;;;;;;5031937;28;20038;-66
2020/12/28 05:28:17;;;;;;;0.82;0.50;;;5.70;99.90;;;;;;5031561;28;20502;-57
2020/12/28 05:30:44;;;;;;;0.50;0.30;;;5.80;99.90;;;;;;5031239;28;20065;-68
2020/12/28 05:33:11;;;;;;;0.68;0.60;;;5.80;99.90;;;;;;5032829;28;20097;-57
2020/12/28 05:35:37;;;;;;;0.65;0.28;;;5.70;99.90;;;;;;5032588;28;20469;-56
2020/12/28 05:38:04;;;;;;;1.00;0.55;;;5.80;99.90;;;;;;5030230;28;20117;-57
2020/12/28 05:40:32;;;;;;;2.45;0.40;;;5.80;99.90;;;;;;5032846;28;20048;-59
2020/12/28 05:42:58;;;;;;;0.30;0.28;;;5.80;99.90;;;;;;5031029;28;20033;-57
2020/12/28 05:45:23;;;;;;;0.50;0.40;;;5.80;99.90;;;;;;5032231;28;20459;-57
2020/12/28 05:47:57;;;;;;;0.50;0.30;;;5.90;99.90;;;;;;5030599;28;20045;-57
2020/12/28 05:50:31;;;;;;;1.38;0.55;;;5.80;99.90;;;;;;5031238;28;20124;-56
2020/12/28 05:53:00;;;;;;;0.35;0.28;;;5.80;99.90;;;;;;5030722;28;20513;-56
2020/12/28 05:55:27;;;;;;;1.55;0.20;;;5.90;99.90;;;;;;5032529;28;20463;-57
2020/12/28 05:57:58;;;;;;;2.50;0.30;;;5.80;99.90;;;;;;5031630;28;20041;-57
2020/12/28 06:00:25;;;;;;;0.63;0.20;;;5.80;99.90;;;;;;5033068;28;20034;-57
2020/12/28 06:02:51;;;;;;;0.70;0.30;;;5.70;99.90;;;;;;5032605;28;20030;-61
2020/12/28 06:05:18;;;;;;;1.63;0.50;;;5.80;99.90;;;;;;5033161;28;20036;-57
2020/12/28 06:07:45;;;;;;;0.57;0.25;;;5.80;99.90;;;;;;5032095;28;20022;-67
2020/12/28 06:10:12;;;;;;;1.83;0.50;;;5.90;99.90;;;;;;5034364;28;20038;-57
2020/12/28 06:12:41;;;;;;;0.73;0.20;;;5.90;99.90;;;;;;5031069;28;20127;-57
2020/12/28 06:15:18;;;;;;;0.50;0.10;;;5.80;99.90;;;;;;5033647;28;20042;-65
2020/12/28 06:17:43;;;;;;;0.40;0.40;;;5.70;99.90;;;;;;5032248;28;20100;-61
2020/12/28 06:20:11;;;;;;;0.82;0.30;;;5.70;99.90;;;;;;5034313;28;20037;-57
2020/12/28 06:22:37;;;;;;;2.22;0.22;;;5.70;99.90;;;;;;5033885;28;20375;-56
2020/12/28 06:25:11;;;;;;;0.40;0.40;;;5.70;99.90;;;;;;5032365;28;20036;-58
2020/12/28 06:27:46;;;;;;;0.40;0.32;;;5.70;99.90;;;;;;5033238;28;20056;-57
2020/12/28 06:30:22;;;;;;;1.58;0.40;;;5.70;99.90;;;;;;5032900;28;20053;-58
2020/12/28 06:33:01;;;;;;;1.00;0.40;;;5.70;99.90;;;;;;5032095;28;20042;-68
2020/12/28 06:35:31;;;;;;;1.95;0.40;;;5.70;99.90;;;;;;5032259;28;20037;-58
2020/12/28 06:38:00;;;;;;;2.28;0.75;;;5.70;99.90;;;;;;5031479;28;20025;-57
2020/12/28 06:40:32;;;;;;;1.73;0.80;;;5.70;99.90;;;;;;5032337;28;20124;-57
2020/12/28 06:43:16;;;;;;;0.80;0.50;;;5.80;99.90;;;;;;5031060;28;20029;-58
2020/12/28 06:45:47;;;;;;;2.53;0.52;;;5.70;99.90;;;;;;5032823;28;20030;-59
2020/12/28 06:48:23;;;;;;;0.85;0.50;;;5.80;99.90;;;;;;5033434;28;20044;-56
2020/12/28 06:50:50;;;;;;;0.65;0.45;;;5.90;99.90;;;;;;5031900;28;20040;-68
2020/12/28 06:53:23;;;;;;;1.13;0.63;;;5.90;99.90;;;;;;5033436;28;20418;-57
2020/12/28 06:55:49;;;;;;;0.68;0.40;;;5.90;99.90;;;;;;5033025;28;20079;-66
2020/12/28 06:58:15;;;;;;;1.05;0.47;;;5.90;99.90;;;;;;5035741;28;20365;-57
2020/12/28 07:00:41;;;;;;;0.77;0.35;;;5.90;99.90;;;;;;5035653;28;20421;-57
2020/12/28 07:03:17;;;;;;;4.60;0.45;;;5.90;99.90;;;;;;5035518;28;20038;-58
2020/12/28 07:05:43;;;;;;;1.38;0.57;;;5.90;99.90;;;;;;5035849;28;20030;-57
2020/12/28 07:08:10;;;;;;;1.55;0.50;;;5.80;99.90;;;;;;5034221;28;20590;-57
2020/12/28 07:10:35;;;;;;;2.25;0.68;;;5.80;99.90;;;;;;5034756;28;20073;-59
2020/12/28 07:13:03;;;;;;;1.15;0.68;;;5.70;99.90;;;;;;5054862;28;20025;-57
2020/12/28 07:15:28;;;;;;;1.63;0.60;;;5.70;99.90;;;;;;5038273;28;20107;-58
2020/12/28 07:17:54;;;;;;;1.45;0.63;;;5.70;99.90;;;;;;5055661;28;20052;-57
2020/12/28 07:20:20;;;;;;;2.35;0.50;;;5.70;99.90;;;;;;5056020;28;20122;-56
2020/12/28 07:22:45;;;;;;;1.98;0.70;;;5.70;99.90;;;;;;5038304;28;20386;-57
2020/12/28 07:25:12;;;;;;;3.58;0.50;;;5.70;99.90;;;;;;5055580;28;20032;-69
2020/12/28 07:27:40;;;;;;;1.45;0.68;;;5.80;99.90;;;;;;5039117;28;20025;-64
2020/12/28 07:30:10;;;;;;;1.77;0.80;;;5.80;99.90;;;;;;5055812;28;20028;-62
2020/12/28 07:32:36;;;;;;;2.80;0.47;;;5.80;99.90;;;;;;5055866;28;20120;-57
2020/12/28 07:35:03;;;;;;;2.65;0.40;;;5.80;99.90;;;;;;5037176;28;20029;-59
2020/12/28 07:37:31;;;;;;;1.33;0.95;;;5.80;99.90;;;;;;5054697;28;20107;-58
2020/12/28 07:39:57;;;;;;;1.65;0.55;;;5.70;99.90;;;;;;5054083;28;20025;-57
2020/12/28 07:42:27;;;;;;;1.73;0.60;;;5.70;99.90;;;;;;5036946;28;20026;-59
2020/12/28 07:44:57;;;;;;;2.13;0.73;;;5.70;99.90;;;;;;5054151;28;20029;-66
2020/12/28 07:47:50;;;;;;;1.65;0.60;;;5.70;99.90;;;;;;5036726;28;20021;-60
2020/12/28 07:50:16;;;;;;;1.55;0.70;;;5.70;99.90;;;;;;5053015;28;20491;-56
2020/12/28 07:52:54;;;;;;;1.15;0.50;;;5.80;99.90;;;;;;5054762;28;20029;-57
2020/12/28 07:55:21;;;;;;;0.95;0.63;;;5.80;99.90;;;;;;5036778;28;20428;-57
2020/12/28 07:58:14;;;;;;;1.77;0.70;;;5.80;99.90;;;;;;5054147;28;20525;-57
2020/12/28 08:00:48;;;;;;;1.50;0.50;;;5.70;99.90;;;;;;5036660;28;20025;-59
2020/12/28 08:03:34;;;;;;;1.13;0.88;;;5.70;99.90;;;;;;5053856;28;20044;-57
2020/12/28 08:06:05;;;;;;;1.90;0.60;;;5.80;99.90;;;;;;5036134;28;20025;-61
2020/12/28 08:08:30;;;;;;;1.05;0.63;;;5.80;99.90;;;;;;5036284;28;20024;-57
2020/12/28 08:10:59;;;;;;;3.33;1.00;;;5.80;99.90;;;;;;5036029;28;20045;-57
2020/12/28 08:13:36;;;;;;;1.20;0.90;;;5.80;99.90;;;;;;5036660;28;20028;-57
2020/12/28 08:16:12;;;;;;;2.33;0.70;;;5.80;99.90;;;;;;5054637;28;20100;-58
2020/12/28 08:18:55;;;;;;;1.48;0.40;;;5.90;99.90;;;;;;5054318;28;20029;-57
2020/12/28 08:21:24;;;;;;;1.00;0.32;;;5.90;99.90;;;;;;5054790;28;20032;-60
2020/12/28 08:23:57;;;;;;;1.23;0.40;;;5.90;99.90;;;;;;5036707;28;20094;-56
2020/12/28 08:26:25;;;;;;;4.50;0.85;;;5.90;99.90;;;;;;5036915;28;20029;-58
2020/12/28 08:28:53;;;;;;;1.25;0.57;;;6.00;99.90;;;;;;5036282;28;20426;-58
2020/12/28 08:31:34;;;;;;;1.00;0.73;;;6.00;99.90;;;;;;5035567;28;20029;-63
2020/12/28 08:34:08;;;;;;;1.65;0.80;;;6.00;99.90;;;;;;5053295;28;20047;-62
2020/12/28 08:36:36;;;;;;;3.60;1.15;;;6.00;99.90;;;;;;5035797;28;20025;-58
2020/12/28 08:39:16;;;;;;;2.85;0.93;;;5.90;99.90;;;;;;5035666;28;20025;-57
2020/12/28 08:42:08;;;;;;;0.73;0.50;;;6.00;99.90;;;;;;5036024;28;20116;-56
2020/12/28 08:44:40;;;;;;;3.42;1.00;;;6.10;99.90;;;;;;5032069;28;20486;-57
2020/12/28 08:47:10;;;;;;;;;;;6.10;99.90;;;;;;5035749;28;20033;-58
2020/12/28 08:49:36;;;;;;;1.98;0.77;;;6.30;99.90;;;;;;5035755;28;19955;-58
2020/12/28 08:52:20;;;;;;;3.00;0.73;;;6.50;99.90;;;;;;5052898;28;20355;-61
2020/12/28 08:55:11;;;;;;;2.05;0.93;;;6.70;99.90;;;;;;5035520;28;20032;-57
2020/12/28 08:57:38;;;;;;;2.60;0.60;;;7.10;99.90;;;;;;5049154;28;20044;-57
2020/12/28 09:00:04;;;;;;;1.55;0.85;;;7.40;99.90;;;;;;5034286;28;20033;-58
2020/12/28 09:02:30;;;;;;;1.55;0.70;;;8.00;99.90;;;;;;5035356;28;20382;-58
2020/12/28 09:04:57;;;;;;;1.75;0.60;;;7.70;99.90;;;;;;5034604;28;20111;-65
2020/12/28 09:07:23;;;;;;;1.92;1.08;;;7.50;99.90;;;;;;5035433;28;20021;-57
2020/12/28 09:09:50;;;;;;;0.98;0.63;;;7.60;99.90;;;;;;5053188;28;20512;-58
2020/12/28 09:12:16;;;;;;;5.03;1.02;;;7.80;99.90;;;;;;5029511;28;20678;-58
2020/12/28 09:14:42;;;;;;;3.03;1.00;;;7.40;99.90;;;;;;5032556;28;20091;-58
2020/12/28 09:17:08;;;;;;;1.38;0.80;;;7.10;99.90;;;;;;5032946;28;20076;-61
2020/12/28 09:19:34;;;;;;;2.47;1.00;;;6.80;99.90;;;;;;5033530;28;20033;-57
2020/12/28 09:22:00;;;;;;;1.98;1.10;;;6.90;99.90;;;;;;5033091;28;20037;-60
2020/12/28 09:24:26;;;;;;;2.25;1.02;;;6.80;99.90;;;;;;5032634;28;20064;-60
2020/12/28 09:26:55;;;;;;;5.43;1.67;;;6.40;99.90;;;;;;5032840;28;20029;-57
2020/12/28 09:29:21;;;;;;;1.45;1.20;;;6.80;99.90;;;;;;5032239;28;20037;-58
2020/12/28 09:31:46;;;;;;;2.25;1.20;;;6.40;99.90;;;;;;5033380;28;20435;-63
2020/12/28 09:34:12;;;;;;;2.85;1.70;;;6.30;99.90;;;;;;5032744;28;20041;-59
2020/12/28 09:36:38;;;;;;;2.05;1.30;;;6.20;99.90;;;;;;5033571;28;20087;-57
2020/12/28 09:39:04;;;;;;;3.25;0.80;;;6.20;99.90;;;;;;5027653;28;20034;-60
2020/12/28 09:41:30;;;;;;;2.08;1.00;;;6.00;99.90;;;;;;5032109;28;20037;-57
2020/12/28 09:43:56;;;;;;;3.38;1.73;;;6.00;99.90;;;;;;5032729;28;20022;-57
2020/12/28 09:46:22;;;;;;;2.42;1.10;;;6.10;99.90;;;;;;5031724;28;20030;-58
2020/12/28 09:48:48;;;;;;;0.98;0.82;;;6.10;99.90;;;;;;5031404;28;20052;-57
2020/12/28 09:51:14;;;;;;;2.92;1.25;;;6.00;99.90;;;;;;5032761;28;20051;-57
2020/12/28 09:53:40;;;;;;;3.90;0.95;;;6.00;99.90;;;;;;5032380;28;20060;-57
2020/12/28 09:56:06;;;;;;;3.97;1.13;;;5.90;99.90;;;;;;5031994;28;20069;-58
2020/12/28 09:58:33;;;;;;;1.80;1.00;;;5.90;99.90;;;;;;5032570;28;20032;-57
2020/12/28 10:01:00;;;;;;;4.10;0.98;;;5.80;99.90;;;;;;5032279;28;20026;-67
2020/12/28 10:03:26;;;;;;;2.35;1.17;;;5.80;99.90;;;;;;5031065;28;20037;-58
2020/12/28 10:05:52;;;;;;;1.77;1.00;;;5.90;99.90;;;;;;5031275;28;20025;-57
2020/12/28 10:08:17;;;;;;;1.67;1.08;;;5.90;99.90;;;;;;5030304;28;20506;-58
2020/12/28 10:10:44;;;;;;;2.22;1.20;;;5.80;99.90;;;;;;5031385;28;20471;-57
2020/12/28 10:13:12;;;;;;;2.78;1.27;;;5.90;99.90;;;;;;5049305;28;20064;-58
2020/12/28 10:15:37;;;;;;;2.78;1.33;;;5.90;99.90;;;;;;5053546;28;20029;-57
2020/12/28 10:18:32;;;;;;;2.03;1.60;;;5.80;99.90;;;;;;5052404;28;20047;-58
2020/12/28 10:20:57;;;;;;;2.65;1.95;;;5.80;99.90;;;;;;5053012;28;20159;-60
2020/12/28 10:23:23;;;;;;;6.28;2.45;;;5.90;99.90;;;;;;5045511;28;20033;-57
2020/12/28 10:25:49;;;;;;;4.55;2.72;;;5.80;99.90;;;;;;5016832;28;20445;-58
2020/12/28 10:28:14;;;;;;;3.88;1.90;;;6.00;99.90;;;;;;5014927;28;20121;-56
2020/12/28 10:30:40;;;;;;;2.05;1.70;;;5.90;99.90;;;;;;5033678;28;20041;-58
2020/12/28 10:33:06;;;;;;;4.13;1.30;;;6.10;99.90;;;;;;5046926;28;20072;-57
2020/12/28 10:35:31;;;;;;;1.45;1.20;;;6.00;99.90;;;;;;5037197;28;20026;-59
2020/12/28 10:37:57;;;;;;;1.73;1.20;;;6.10;99.90;;;;;;5020837;28;20029;-62
2020/12/28 10:40:23;;;;;;;2.15;1.67;;;6.00;99.90;;;;;;5035668;28;20145;-58
2020/12/28 10:42:48;;;;;;;1.75;1.20;;;6.10;99.90;;;;;;5019198;28;20067;-58
2020/12/28 10:45:14;;;;;;;2.05;1.55;;;6.20;99.90;;;;;;5039552;28;20048;-62
2020/12/28 10:47:40;;;;;;;1.50;1.20;;;6.30;99.90;;;;;;5057612;28;20021;-58
2020/12/28 10:50:06;;;;;;;4.28;1.52;;;6.40;99.90;;;;;;5038679;28;20474;-58
2020/12/28 10:52:31;;;;;;;2.28;1.23;;;6.40;99.90;;;;;;5059260;28;20035;-58
2020/12/28 10:54:57;;;;;;;2.25;1.25;;;6.40;99.90;;;;;;5058192;28;20029;-59
2020/12/28 10:57:22;;;;;;;2.50;1.60;;;6.60;99.90;;;;;;5057467;28;20148;-56
2020/12/28 10:59:48;;;;;;;6.43;1.52;;;6.80;99.90;;;;;;5056641;28;20086;-58
2020/12/28 11:02:14;;;;;;;2.72;1.23;;;7.20;99.90;;;;;;5054687;28;20037;-57
2020/12/28 11:04:39;;;;;;;3.35;1.10;;;7.40;99.90;;;;;;5037335;28;20424;-58
2020/12/28 11:07:05;;;;;;;3.20;2.15;;;7.50;99.90;;;;;;5055309;28;20025;-57
2020/12/28 11:09:31;;;;;;;1.40;1.00;;;7.20;99.90;;;;;;5038313;28;20025;-57
2020/12/28 11:11:56;;;;;;;2.30;0.90;;;7.10;99.90;;;;;;5037868;28;20045;-57
2020/12/28 11:14:22;;;;;;;1.13;0.90;;;7.00;99.90;;;;;;5055448;28;20574;-58
2020/12/28 11:16:48;;;;;;;4.80;1.27;;;7.10;99.90;;;;;;5038478;28;20021;-58
2020/12/28 11:19:14;;;;;;;1.48;1.10;;;7.20;99.90;;;;;;5032281;28;20029;-60
2020/12/28 11:21:39;;;;;;;1.17;1.00;;;7.20;99.90;;;;;;5029689;28;20032;-58
2020/12/28 11:24:05;;;;;;;5.18;1.50;;;6.90;99.90;;;;;;5046511;28;20029;-68
2020/12/28 11:26:33;;;;;;;3.17;1.63;;;7.10;99.90;;;;;;5039031;28;20037;-58
2020/12/28 11:29:00;;;;;;;1.98;1.58;;;8.10;99.90;;;;;;5043756;28;20021;-56
2020/12/28 11:31:26;;;;;;;2.42;1.40;;;7.60;99.90;;;;;;5030377;28;20112;-59
2020/12/28 11:33:51;;;;;;;1.88;1.35;;;7.30;99.90;;;;;;5037250;28;20175;-57
2020/12/28 11:36:17;;;;;;;3.63;1.83;;;6.90;99.90;;;;;;5051386;28;20028;-57
2020/12/28 11:38:44;;;;;;;2.28;1.60;;;6.80;99.90;;;;;;5017178;28;20029;-60
2020/12/28 11:41:12;;;;;;;1.50;1.40;;;6.80;99.90;;;;;;5017779;28;20120;-57
2020/12/28 11:43:38;;;;;;;4.25;1.98;;;6.60;99.90;;;;;;5044499;28;20025;-57
2020/12/28 11:46:06;;;;;;;2.15;1.42;;;6.50;99.90;;;;;;5044380;28;20026;-67
2020/12/28 11:48:32;;;;;;;3.53;1.40;;;6.60;99.90;;;;;;5047437;28;20470;-59
2020/12/28 11:50:57;;;;;;;1.42;1.33;;;6.50;99.90;;;;;;5039316;28;20034;-59
2020/12/28 11:53:23;;;;;;;3.70;2.42;;;6.50;99.90;;;;;;5039655;28;20037;-59
2020/12/28 11:56:04;;;;;;;2.67;2.08;;;6.50;99.90;;;;;;5042540;28;20470;-59
2020/12/28 11:58:32;;;;;;;2.78;2.47;;;6.50;99.90;;;;;;5023336;28;20022;-58
2020/12/28 12:00:58;;;;;;;2.10;1.90;;;6.50;99.90;;;;;;5053029;28;20059;-57
2020/12/28 12:03:25;;;;;;;2.33;1.77;;;6.60;99.90;;;;;;5042696;28;20037;-58
2020/12/28 12:05:50;;;;;;;2.35;2.10;;;6.60;99.90;;;;;;5032844;28;20083;-58
2020/12/28 12:08:16;;;;;;;2.75;1.50;;;6.50;99.90;;;;;;5046220;28;20029;-58
2020/12/28 12:10:42;;;;;;;3.20;1.83;;;6.50;99.90;;;;;;5053707;28;20037;-59
2020/12/28 12:13:07;;;;;;;2.28;1.70;;;6.60;99.90;;;;;;5034837;28;20516;-64
2020/12/28 12:15:33;;;;;;;2.78;1.70;;;6.60;99.90;;;;;;5054149;28;20025;-58
2020/12/28 12:17:59;;;;;;;2.08;1.65;;;6.80;99.90;;;;;;5052291;28;20032;-61
2020/12/28 12:20:24;;;;;;;1.63;1.52;;;6.80;99.90;;;;;;5039607;28;20537;-60
2020/12/28 12:22:50;;;;;;;1.70;1.60;;;6.70;99.90;;;;;;5017586;28;20489;-56
2020/12/28 12:25:16;;;;;;;2.13;1.70;;;6.80;99.90;;;;;;5016778;28;20021;-59
2020/12/28 12:27:41;;;;;;;2.05;1.30;;;6.90;99.90;;;;;;5035067;28;20364;-58
2020/12/28 12:30:07;;;;;;;2.22;1.25;;;6.80;99.90;;;;;;5035093;28;20076;-67
2020/12/28 12:32:32;;;;;;;1.83;1.73;;;6.90;99.90;;;;;;5035185;28;20068;-58
2020/12/28 12:34:59;;;;;;;2.75;1.85;;;6.80;99.90;;;;;;5035828;28;20052;-59
2020/12/28 12:37:25;;;;;;;1.55;1.30;;;6.80;99.90;;;;;;5017961;28;20029;-68
2020/12/28 12:39:50;;;;;;;12.27;2.17;;;7.00;99.90;;;;;;5036321;28;20109;-59
2020/12/28 12:42:16;;;;;;;4.75;2.03;;;7.00;99.90;;;;;;5020722;28;20024;-58
2020/12/28 12:44:44;;;;;;;1.88;1.77;;;6.80;99.90;;;;;;5054050;28;20029;-57
2020/12/28 12:47:10;;;;;;;1.90;1.75;;;6.90;99.90;;;;;;5035996;28;20036;-71
2020/12/28 12:49:41;;;;;;;2.00;1.60;;;6.80;99.90;;;;;;5037015;28;20041;-58
2020/12/28 12:52:28;;;;;;;1.92;1.73;;;6.80;99.90;;;;;;5055356;28;20489;-57
2020/12/28 12:54:54;;;;;;;1.83;1.52;;;6.90;99.90;;;;;;5054418;28;20021;-58
2020/12/28 12:57:20;;;;;;;2.70;1.88;;;6.80;99.90;;;;;;5035522;28;20040;-59
2020/12/28 13:00:05;;;;;;;2.88;2.20;;;6.70;99.90;;;;;;5053511;28;20025;-58